createdAt,value
2023-04-16T00:01:45.020Z,101616.56
2023-04-16T00:06:47.132Z,101613.81
2023-04-16T00:11:49.155Z,101611.34
2023-04-16T00:16:54.213Z,101606.94
2023-04-16T00:21:56.446Z,101603.09
2023-04-16T00:26:58.515Z,101613.22
2023-04-16T00:32:06.354Z,101602.78
2023-04-16T00:37:08.413Z,101599.97
2023-04-16T00:42:10.489Z,101597.47
2023-04-16T00:47:12.821Z,101601.28
2023-04-16T00:52:15.811Z,101598.78
2023-04-16T00:57:23.961Z,101582.84
2023-04-16T01:05:15.182Z,101585.66
2023-04-16T01:10:17.493Z,101577.47
2023-04-16T01:15:20.436Z,101598.84
2023-04-16T01:20:23.134Z,101591.13
2023-04-16T01:25:25.508Z,101591.88
2023-04-16T01:30:27.657Z,101586.09
2023-04-16T01:35:41.248Z,101585.78
2023-04-16T01:40:43.410Z,101590.41
2023-04-16T01:45:45.674Z,101590.91
2023-04-16T01:50:48.166Z,101593.38
2023-04-16T01:55:50.448Z,101589.81
2023-04-16T02:00:53.268Z,101582.13
2023-04-16T02:05:55.242Z,101587.81
2023-04-16T02:10:59.907Z,101593.00
2023-04-16T02:16:02.712Z,101591.03
2023-04-16T02:21:33.487Z,101597.59
2023-04-16T02:26:43.256Z,101597.34
2023-04-16T02:31:50.153Z,101606.13
2023-04-16T02:36:52.461Z,101596.50
2023-04-16T02:41:54.741Z,101597.03
2023-04-16T02:46:56.662Z,101601.09
2023-04-16T02:52:03.066Z,101609.56
2023-04-16T02:57:06.208Z,101618.84
2023-04-16T03:02:08.594Z,101614.72
2023-04-16T03:07:12.558Z,101611.44
2023-04-16T03:12:14.654Z,101614.44
2023-04-16T03:17:16.776Z,101608.66
2023-04-16T03:22:19.035Z,101604.53
2023-04-16T03:27:24.675Z,101602.34
2023-04-16T03:32:27.350Z,101590.06
2023-04-16T03:37:30.722Z,101599.41
2023-04-16T03:42:33.634Z,101602.16
2023-04-16T03:47:35.840Z,101586.88
2023-04-16T03:52:39.086Z,101594.00
2023-04-16T03:57:41.772Z,101590.13
2023-04-16T04:08:55.684Z,101596.34
2023-04-16T04:13:57.843Z,101597.16
2023-04-16T04:19:00.487Z,101592.75
2023-04-16T04:24:40.521Z,101596.31
2023-04-16T04:30:23.437Z,101584.28
2023-04-16T04:36:06.683Z,101587.31
2023-04-16T04:41:10.266Z,101596.34
2023-04-16T04:46:18.432Z,101594.19
2023-04-16T04:51:20.697Z,101590.88
2023-04-16T04:56:22.733Z,101594.41
2023-04-16T05:01:24.858Z,101603.19
2023-04-16T05:06:31.048Z,101599.88
2023-04-16T05:11:34.172Z,101604.53
2023-04-16T05:16:37.285Z,101605.63
2023-04-16T05:21:39.356Z,101599.59
2023-04-16T05:26:41.314Z,101611.91
2023-04-16T05:31:43.392Z,101617.94
2023-04-16T05:36:45.962Z,101638.75
2023-04-16T05:41:48.949Z,101634.94
2023-04-16T05:46:51.275Z,101637.41
2023-04-16T05:51:53.419Z,101643.44
2023-04-16T05:56:55.399Z,101666.44
2023-04-16T06:01:57.970Z,101652.81
2023-04-16T06:07:01.766Z,101657.19
2023-04-16T06:12:16.693Z,101666.53
2023-04-16T06:17:19.544Z,101668.50
2023-04-16T06:22:21.823Z,101670.78
2023-04-16T06:27:23.926Z,101675.19
2023-04-16T06:32:26.244Z,101675.78
2023-04-16T06:37:28.191Z,101667.88
2023-04-16T06:42:30.443Z,101678.59
2023-04-16T06:47:32.666Z,101676.75
2023-04-16T06:52:35.036Z,101673.88
2023-04-16T06:57:37.750Z,101684.50
2023-04-16T07:02:40.096Z,101678.06
2023-04-16T07:07:42.330Z,101662.50
2023-04-16T07:12:44.846Z,101667.94
2023-04-16T07:17:47.061Z,101678.59
2023-04-16T07:22:49.552Z,101682.56
2023-04-16T07:27:51.956Z,101677.75
2023-04-16T07:32:55.839Z,101685.00
2023-04-16T07:37:58.160Z,101675.47
2023-04-16T07:43:00.587Z,101664.50
2023-04-16T07:48:02.750Z,101652.78
2023-04-16T07:53:07.601Z,101651.44
2023-04-16T07:58:09.836Z,101657.03
2023-04-16T08:03:12.141Z,101655.34
2023-04-16T08:08:14.396Z,101640.78
2023-04-16T08:13:21.894Z,101640.03
2023-04-16T08:18:23.980Z,101635.91
2023-04-16T08:23:26.319Z,101646.50
2023-04-16T08:28:28.318Z,101642.31
2023-04-16T08:33:30.627Z,101638.91
2023-04-16T08:38:32.630Z,101651.84
2023-04-16T08:43:38.350Z,101647.16
2023-04-16T08:48:43.426Z,101647.94
2023-04-16T08:53:54.160Z,101648.44
2023-04-16T08:58:58.517Z,101650.28
2023-04-16T09:04:03.265Z,101658.34
2023-04-16T09:09:12.551Z,101662.41
2023-04-16T09:14:14.774Z,101658.19
2023-04-16T09:19:17.380Z,101654.38
2023-04-16T09:24:20.040Z,101647.44
2023-04-16T09:29:41.144Z,101652.50
2023-04-16T09:34:59.048Z,101652.97
2023-04-16T09:40:03.815Z,101653.63
2023-04-16T09:45:15.868Z,101661.00
2023-04-16T09:50:20.380Z,101665.84
2023-04-16T09:55:27.915Z,101664.13
2023-04-16T10:00:33.379Z,101665.84
2023-04-16T10:05:35.476Z,101678.59
2023-04-16T10:10:38.196Z,101668.25
2023-04-16T10:15:40.856Z,101663.63
2023-04-16T10:20:43.990Z,101661.22
2023-04-16T10:25:47.856Z,101660.09
2023-04-16T10:30:55.344Z,101665.53
2023-04-16T10:36:26.832Z,101672.84
2023-04-16T10:41:29.243Z,101671.97
2023-04-16T10:46:41.599Z,101662.94
2023-04-16T10:51:53.070Z,101664.88
2023-04-16T10:57:00.797Z,101667.13
2023-04-16T11:02:18.477Z,101662.34
2023-04-16T11:07:31.475Z,101649.00
2023-04-16T11:12:44.204Z,101656.72
2023-04-16T11:17:47.414Z,101644.78
2023-04-16T11:22:50.955Z,101646.16
2023-04-16T11:27:53.686Z,101635.09
2023-04-16T11:32:55.837Z,101635.41
2023-04-16T11:37:58.479Z,101628.28
2023-04-16T11:43:12.751Z,101627.63
2023-04-16T11:48:14.839Z,101611.69
2023-04-16T11:53:16.968Z,101623.31
2023-04-16T11:58:20.159Z,101612.72
2023-04-16T12:09:26.028Z,101608.63
2023-04-16T12:14:28.614Z,101597.50
2023-04-16T12:19:30.549Z,101594.59
2023-04-16T12:24:32.496Z,101577.88
2023-04-16T12:29:34.662Z,101590.34
2023-04-16T12:34:51.315Z,101581.94
2023-04-16T12:39:54.241Z,101580.50
2023-04-16T12:44:56.430Z,101577.44
2023-04-16T12:49:59.458Z,101584.75
2023-04-16T12:55:02.934Z,101587.66
2023-04-16T13:00:16.752Z,101591.94
2023-04-16T13:05:19.438Z,101575.38
2023-04-16T13:10:23.560Z,101576.63
2023-04-16T13:15:25.728Z,101561.94
2023-04-16T13:20:28.034Z,101555.38
2023-04-16T13:25:31.137Z,101558.28
2023-04-16T13:30:33.624Z,101551.47
2023-04-16T13:35:35.875Z,101553.03
2023-04-16T13:40:38.313Z,101545.44
2023-04-16T13:45:40.673Z,101525.63
2023-04-16T13:50:43.001Z,101521.88
2023-04-16T13:55:45.057Z,101514.28
2023-04-16T14:00:47.376Z,101502.22
2023-04-16T14:05:49.333Z,101501.66
2023-04-16T14:10:51.701Z,101492.41
2023-04-16T14:15:54.054Z,101502.56
2023-04-16T14:20:56.006Z,101479.53
2023-04-16T14:25:58.008Z,101474.69
2023-04-16T14:30:59.920Z,101483.19
2023-04-16T14:36:03.209Z,101481.56
2023-04-16T14:41:30.793Z,101491.09
2023-04-16T14:46:33.787Z,101479.03
2023-04-16T14:51:35.776Z,101473.88
2023-04-16T14:56:37.932Z,101481.19
2023-04-16T15:01:40.559Z,101477.31
2023-04-16T15:06:55.626Z,101469.03
2023-04-16T15:11:58.325Z,101471.78
2023-04-16T15:17:00.953Z,101458.09
2023-04-16T15:22:03.058Z,101448.47
2023-04-16T15:27:08.444Z,101453.25
2023-04-16T15:32:11.752Z,101448.34
2023-04-16T15:37:22.668Z,101439.59
2023-04-16T15:42:24.761Z,101441.22
2023-04-16T15:47:26.776Z,101423.06
2023-04-16T15:52:28.934Z,101412.63
2023-04-16T15:57:31.142Z,101416.38
2023-04-16T16:02:34.061Z,101420.06
2023-04-16T16:07:36.565Z,101408.22
2023-04-16T16:12:39.210Z,101399.81
2023-04-16T16:17:41.380Z,101402.09
2023-04-16T16:22:45.321Z,101417.53
2023-04-16T16:27:47.407Z,101420.28
2023-04-16T16:32:49.525Z,101427.09
2023-04-16T16:37:55.744Z,101434.81
2023-04-16T16:43:04.170Z,101439.31
2023-04-16T16:48:06.687Z,101424.78
2023-04-16T16:53:08.826Z,101445.47
2023-04-16T16:58:11.297Z,101443.31
2023-04-16T17:03:13.675Z,101433.94
2023-04-16T17:08:15.992Z,101436.63
2023-04-16T17:13:44.198Z,101436.75
2023-04-16T17:18:52.643Z,101444.84
2023-04-16T17:23:58.167Z,101441.78
2023-04-16T17:29:04.850Z,101438.06
2023-04-16T17:34:07.231Z,101452.13
2023-04-16T17:39:09.372Z,101453.53
2023-04-16T17:44:11.948Z,101463.44
2023-04-16T17:49:14.002Z,101465.72
2023-04-16T17:54:16.007Z,101472.41
2023-04-16T17:59:18.157Z,101465.34
2023-04-16T18:04:20.237Z,101476.41
2023-04-16T18:09:22.582Z,101488.94
2023-04-16T18:14:27.749Z,101473.31
2023-04-16T18:19:32.301Z,101484.38
2023-04-16T18:24:36.486Z,101486.66
2023-04-16T18:29:40.857Z,101485.13
2023-04-16T18:34:43.211Z,101484.34
2023-04-16T18:39:45.400Z,101493.00
2023-04-16T18:44:54.164Z,101493.97
2023-04-16T18:49:56.197Z,101504.22
2023-04-16T18:54:58.083Z,101496.00
2023-04-16T19:00:00.140Z,101505.41
2023-04-16T19:05:02.351Z,101503.22
2023-04-16T19:10:07.296Z,101499.94
2023-04-16T19:15:09.810Z,101505.44
2023-04-16T19:20:11.945Z,101514.50
2023-04-16T19:25:14.106Z,101515.31
2023-04-16T19:30:16.266Z,101520.28
2023-04-16T19:35:18.280Z,101524.16
2023-04-16T19:40:20.545Z,101520.34
2023-04-16T19:45:26.044Z,101529.69
2023-04-16T19:50:31.633Z,101529.16
2023-04-16T19:55:33.833Z,101538.25
2023-04-16T20:00:43.198Z,101540.19
2023-04-16T20:05:48.562Z,101540.75
2023-04-16T20:10:54.623Z,101544.91
2023-04-16T20:15:57.569Z,101554.00
2023-04-16T20:21:04.523Z,101556.19
2023-04-16T20:26:06.973Z,101556.75
2023-04-16T20:31:09.066Z,101556.22
2023-04-16T20:36:10.874Z,101554.03
2023-04-16T20:41:20.301Z,101568.84
2023-04-16T20:46:30.354Z,101552.66
2023-04-16T20:51:33.483Z,101540.28
2023-04-16T20:56:39.952Z,101532.06
2023-04-16T21:01:52.359Z,101528.22
2023-04-16T21:07:20.204Z,101528.22
2023-04-16T21:12:24.915Z,101528.75
2023-04-16T21:17:27.276Z,101533.13
2023-04-16T21:22:29.502Z,101520.50
2023-04-16T21:27:32.527Z,101527.66
2023-04-16T21:32:34.908Z,101543.03
2023-04-16T21:37:37.372Z,101536.16
2023-04-16T21:42:42.156Z,101523.28
2023-04-16T21:47:44.276Z,101514.50
2023-04-16T21:52:46.993Z,101525.50
2023-04-16T21:57:49.294Z,101508.78
2023-04-16T22:02:51.719Z,101504.66
2023-04-16T22:07:54.064Z,101503.56
2023-04-16T22:12:56.012Z,101509.06
2023-04-16T22:17:58.261Z,101508.25
2023-04-16T22:23:00.627Z,101502.75
2023-04-16T22:28:06.473Z,101512.09
2023-04-16T22:33:08.743Z,101507.16
2023-04-16T22:38:11.185Z,101515.69
2023-04-16T22:43:13.113Z,101511.53
2023-04-16T22:48:15.633Z,101515.66
2023-04-16T22:53:18.423Z,101522.25
2023-04-16T22:58:22.929Z,101517.03
2023-04-16T23:03:28.402Z,101517.84
2023-04-16T23:08:30.759Z,101515.66
2023-04-16T23:13:38.218Z,101517.84
2023-04-16T23:18:40.321Z,101522.50
2023-04-16T23:23:42.398Z,101511.81
2023-04-16T23:28:44.468Z,101496.72
2023-04-16T23:33:46.459Z,101500.28
2023-04-16T23:38:48.946Z,101497.56
2023-04-16T23:43:50.861Z,101500.00
2023-04-16T23:48:55.181Z,101487.38
2023-04-16T23:53:58.008Z,101490.91
2023-04-16T23:59:00.131Z,101493.38
